ダッカ の空港の天気 - METARとTAF

シャージャラル国際空港(ダッカ) ( VGHS / DAC ) - バングラデシュ ダッカ
飛行場実況気象(Metar)
観測時間07/12 22:30 BDT (07/12 16:30 UTC)
風向・風速南 3m/s
視程3500m
天気現象霧雨
全天の8割程度の雲 雲底高度 300m
全天の8割程度の雲 雲底高度 3050m
気温28℃
湿度89%
気圧1003hPa
METARVGHS 121630Z 18005KT 3500 DZ BKN010 BKN100 28/26 Q1003 TEMPO RA
過去の天気等 Google飛行場航空写真 Wunderground天気予報

過去48時間のMETAR

飛行場予報(TAF)
発表時間: 7/12 17:00 BDT (7/12 11:00 UTC)
予報対象時間: 12日18時 BDT ~ 14日0時 BDT
風向・風速南 5m/s
視程4000m
天気現象煙霧
全天の4割程度の雲 雲底高度 370m
全天の8割程度の雲 雲底高度 3050m
12日18時 BDT ~ 13日2時 BDT に一時的に
風向・風速南 13m/s
視程2000m
13日3時 BDT ~ 13日5時 BDT に徐々に
風向・風速南南西 4m/s
視程3500m
天気現象煙霧
全天の4割程度の雲 雲底高度 370m
全天の8割程度の雲 雲底高度 3050m
13日3時 BDT ~ 13日21時 BDT に一時的に
風向・風速南 13m/s
視程2000m
13日22時 BDT ~ 13日24時 BDT に徐々に
風向・風速南南東 5m/s
視程4000m
天気現象煙霧
全天の4割程度の雲 雲底高度 460m
全天の8割程度の雲 雲底高度 3050m
TAF VGHS 121100Z 1212/1318 18010KT 4000 HZ SCT012 BKN100
TEMPO 1212/1220 18025KT 2000 RA/TSRA BKN008 FEW025CB OVC090
BECMG 1221/1223 20008KT 3500 HZ SCT012 BKN100
TEMPO 1221/1315 18025KT 2000 RA/TSRA BKN008 FEW025CB OVC090
BECMG 1316/1318 16010KT 4000 HZ SCT015 BKN100